createdAt,value
2019-02-16T00:00:05.101Z,23.07
2019-02-16T00:02:33.877Z,19.90
2019-02-16T00:05:02.285Z,22.77
2019-02-16T00:07:30.717Z,25.30
2019-02-16T00:09:59.124Z,22.73
2019-02-16T00:12:27.526Z,23.25
2019-02-16T00:14:55.932Z,19.82
2019-02-16T00:17:24.342Z,20.23
2019-02-16T00:19:52.770Z,25.05
2019-02-16T00:22:21.236Z,22.50
2019-02-16T00:24:49.708Z,20.68
2019-02-16T00:27:18.125Z,27.77
2019-02-16T00:29:46.568Z,26.23
2019-02-16T00:32:14.969Z,24.90
2019-02-16T00:34:43.376Z,22.98
2019-02-16T00:37:11.774Z,21.60
2019-02-16T00:39:40.183Z,24.80
2019-02-16T00:42:08.581Z,21.95
2019-02-16T00:44:37.013Z,22.05
2019-02-16T00:47:05.411Z,20.90
2019-02-16T00:49:33.810Z,19.48
2019-02-16T00:52:02.223Z,14.95
2019-02-16T00:54:30.644Z,17.73
2019-02-16T00:56:59.119Z,18.15
2019-02-16T00:59:28.116Z,20.37
2019-02-16T01:01:56.511Z,19.42
2019-02-16T01:04:24.986Z,15.10
2019-02-16T01:06:53.380Z,14.25
2019-02-16T01:09:21.813Z,16.77
2019-02-16T01:11:50.208Z,13.93
2019-02-16T01:14:18.612Z,15.70
2019-02-16T01:16:47.017Z,19.07
2019-02-16T01:19:15.414Z,13.90
2019-02-16T01:21:43.839Z,12.55
2019-02-16T01:24:12.246Z,13.05
2019-02-16T01:26:40.649Z,15.58
2019-02-16T01:29:09.052Z,13.80
2019-02-16T01:31:37.473Z,15.40
2019-02-16T01:34:05.926Z,12.50
2019-02-16T01:36:34.354Z,13.10
2019-02-16T01:39:04.057Z,12.63
2019-02-16T01:41:32.553Z,13.68
2019-02-16T01:44:00.981Z,13.55
2019-02-16T01:46:29.498Z,13.83
2019-02-16T01:48:57.891Z,11.60
2019-02-16T01:51:31.957Z,12.88
2019-02-16T01:53:56.370Z,12.15
2019-02-16T01:56:24.870Z,9.80
2019-02-16T01:58:53.390Z,10.25
2019-02-16T02:01:23.612Z,10.38
2019-02-16T02:03:52.151Z,12.80
2019-02-16T02:06:20.651Z,10.88
2019-02-16T02:08:49.145Z,10.43
2019-02-16T02:11:17.592Z,11.30
2019-02-16T02:13:46.016Z,11.83
2019-02-16T02:16:14.477Z,12.60
2019-02-16T02:18:42.894Z,9.35
2019-02-16T02:21:11.320Z,10.78
2019-02-16T02:23:39.842Z,11.50
2019-02-16T02:26:08.305Z,10.78
2019-02-16T02:28:36.686Z,11.97
2019-02-16T02:31:05.107Z,9.35
2019-02-16T02:33:33.533Z,9.30
2019-02-16T02:36:01.982Z,10.28
2019-02-16T02:38:30.412Z,12.33
2019-02-16T02:40:58.834Z,12.75
2019-02-16T02:43:27.306Z,12.50
2019-02-16T02:45:55.749Z,12.93
2019-02-16T02:48:24.300Z,11.73
2019-02-16T02:50:52.725Z,13.50
2019-02-16T02:53:30.801Z,14.23
2019-02-16T02:55:51.228Z,15.03
2019-02-16T02:58:19.694Z,12.68
2019-02-16T03:00:48.160Z,11.05
2019-02-16T03:03:16.585Z,12.07
2019-02-16T03:05:45.003Z,13.93
2019-02-16T03:08:13.429Z,13.00
2019-02-16T03:10:41.938Z,13.43
2019-02-16T03:13:10.522Z,15.00
2019-02-16T03:15:38.949Z,13.28
2019-02-16T03:18:07.367Z,11.12
2019-02-16T03:20:35.790Z,13.80
2019-02-16T03:23:12.750Z,16.37
2019-02-16T03:25:43.855Z,16.40
2019-02-16T03:31:25.729Z,12.18
2019-02-16T03:34:00.412Z,12.37
2019-02-16T03:37:02.663Z,13.00
2019-02-16T03:39:31.260Z,11.28
2019-02-16T03:41:59.782Z,13.22
2019-02-16T03:44:28.474Z,13.40
2019-02-16T03:46:58.010Z,14.95
2019-02-16T03:49:26.434Z,11.25
2019-02-16T03:51:54.854Z,12.40
2019-02-16T03:54:23.302Z,15.58
2019-02-16T03:56:51.766Z,14.18
2019-02-16T03:59:20.226Z,12.07
2019-02-16T04:01:48.726Z,14.00
2019-02-16T04:04:17.150Z,16.20
2019-02-16T04:06:45.603Z,13.53
2019-02-16T04:09:14.042Z,15.53
2019-02-16T04:11:42.476Z,17.25
2019-02-16T04:14:10.983Z,17.23
2019-02-16T04:16:39.579Z,16.65
2019-02-16T04:19:08.001Z,17.10
2019-02-16T04:21:36.402Z,19.55
2019-02-16T04:24:04.846Z,21.27
2019-02-16T04:26:33.232Z,19.37
2019-02-16T04:29:01.674Z,23.38
2019-02-16T04:31:30.101Z,19.42
2019-02-16T04:33:58.504Z,21.17
2019-02-16T04:36:26.917Z,21.42
2019-02-16T04:38:55.316Z,24.92
2019-02-16T04:41:23.781Z,26.65
2019-02-16T04:43:52.216Z,24.37
2019-02-16T04:46:20.617Z,29.18
2019-02-16T04:48:49.025Z,24.10
2019-02-16T04:51:17.420Z,27.17
2019-02-16T04:53:45.837Z,28.55
2019-02-16T04:56:14.253Z,25.60
2019-02-16T04:58:42.653Z,24.63
2019-02-16T05:01:11.125Z,26.77
2019-02-16T05:03:39.533Z,29.52
2019-02-16T05:06:07.932Z,29.18
2019-02-16T05:08:36.369Z,32.75
2019-02-16T05:11:04.766Z,30.25
2019-02-16T05:13:33.179Z,33.02
2019-02-16T05:16:01.587Z,32.60
2019-02-16T05:18:30.053Z,30.10
2019-02-16T05:20:58.493Z,37.78
2019-02-16T05:23:26.888Z,36.00
2019-02-16T05:25:55.308Z,38.30
2019-02-16T05:28:23.758Z,36.28
2019-02-16T05:30:52.172Z,39.63
2019-02-16T05:33:20.602Z,37.95
2019-02-16T05:35:49.052Z,38.38
2019-02-16T05:38:17.458Z,36.48
2019-02-16T05:40:45.917Z,37.20
2019-02-16T05:43:14.317Z,41.25
2019-02-16T05:45:42.748Z,35.75
2019-02-16T05:48:11.152Z,38.38
2019-02-16T05:50:39.930Z,35.38
2019-02-16T05:53:08.402Z,31.48
2019-02-16T05:55:36.801Z,37.55
2019-02-16T05:58:05.246Z,36.33
2019-02-16T06:00:33.655Z,36.80
2019-02-16T06:03:02.058Z,33.23
2019-02-16T06:05:30.456Z,33.30
2019-02-16T06:07:58.869Z,39.95
2019-02-16T06:10:27.300Z,30.60
2019-02-16T06:12:55.708Z,30.17
2019-02-16T06:15:24.105Z,27.00
2019-02-16T06:17:52.512Z,32.25
2019-02-16T06:20:20.984Z,34.45
2019-02-16T06:22:49.442Z,36.50
2019-02-16T06:25:17.857Z,39.70
2019-02-16T06:27:46.303Z,34.95
2019-02-16T06:30:14.705Z,35.73
2019-02-16T06:32:43.112Z,38.98
2019-02-16T06:35:19.436Z,39.78
2019-02-16T06:37:48.076Z,37.28
2019-02-16T06:40:16.531Z,37.00
2019-02-16T06:42:44.943Z,33.30
2019-02-16T06:45:13.412Z,34.13
2019-02-16T06:47:41.837Z,39.50
2019-02-16T06:50:10.245Z,37.38
2019-02-16T06:52:38.710Z,39.83
2019-02-16T06:55:07.201Z,42.48
2019-02-16T06:57:35.665Z,38.98
2019-02-16T07:00:06.034Z,37.03
2019-02-16T07:02:34.432Z,38.25
2019-02-16T07:05:02.908Z,39.67
2019-02-16T07:07:31.433Z,39.25
2019-02-16T07:09:59.769Z,32.93
2019-02-16T07:12:28.188Z,38.20
2019-02-16T07:14:56.594Z,37.70
2019-02-16T07:17:35.944Z,40.52
2019-02-16T07:20:07.833Z,41.08
2019-02-16T07:22:36.513Z,40.95
2019-02-16T07:25:06.352Z,40.38
2019-02-16T07:27:34.749Z,36.73
2019-02-16T07:30:03.550Z,42.17
2019-02-16T07:32:32.015Z,35.48
2019-02-16T07:35:00.423Z,35.95
2019-02-16T07:37:28.832Z,30.77
2019-02-16T07:39:57.318Z,37.45
2019-02-16T07:42:26.331Z,38.65
2019-02-16T07:44:59.296Z,33.70
2019-02-16T07:47:29.335Z,38.23
2019-02-16T07:49:59.380Z,34.83
2019-02-16T07:52:31.917Z,33.23
2019-02-16T07:55:10.885Z,32.25
2019-02-16T07:57:57.029Z,33.98
2019-02-16T08:00:36.133Z,30.75
2019-02-16T08:03:08.792Z,28.20
2019-02-16T08:05:54.240Z,29.32
2019-02-16T08:08:36.447Z,29.15
2019-02-16T08:11:06.481Z,28.92
2019-02-16T08:13:48.760Z,29.82
2019-02-16T08:16:21.820Z,29.87
2019-02-16T08:18:58.068Z,25.77
2019-02-16T08:21:37.341Z,29.80
2019-02-16T08:24:10.579Z,29.37
2019-02-16T08:26:40.652Z,27.75
2019-02-16T08:29:19.501Z,22.75
2019-02-16T08:31:58.529Z,21.87
2019-02-16T08:34:44.825Z,23.95
2019-02-16T08:37:23.652Z,22.67
2019-02-16T08:39:59.456Z,25.55
2019-02-16T08:42:44.528Z,23.25
2019-02-16T08:45:30.895Z,22.62
2019-02-16T08:48:00.962Z,22.40
2019-02-16T08:50:36.741Z,24.98
2019-02-16T08:53:06.814Z,24.27
2019-02-16T08:55:49.157Z,22.75
2019-02-16T08:58:21.948Z,21.25
2019-02-16T09:00:51.996Z,25.77
2019-02-16T09:03:24.722Z,24.80
2019-02-16T09:05:57.448Z,26.50
2019-02-16T09:08:33.510Z,23.87
2019-02-16T09:11:03.548Z,23.75
2019-02-16T09:13:36.397Z,20.97
2019-02-16T09:16:06.443Z,23.05
2019-02-16T09:18:39.170Z,25.95
2019-02-16T09:21:24.076Z,25.08
2019-02-16T09:23:59.133Z,24.02
2019-02-16T09:26:34.681Z,22.15
2019-02-16T09:29:22.857Z,20.50
2019-02-16T09:31:55.630Z,23.65
2019-02-16T09:34:25.677Z,24.72
2019-02-16T09:37:01.708Z,26.25
2019-02-16T09:39:37.766Z,29.55
2019-02-16T09:42:07.906Z,26.70
2019-02-16T09:44:44.038Z,24.37
2019-02-16T09:47:29.293Z,24.02
2019-02-16T09:50:08.341Z,23.90
2019-02-16T09:52:38.401Z,17.50
2019-02-16T09:55:11.865Z,20.32
2019-02-16T09:57:44.909Z,20.77
2019-02-16T10:00:18.013Z,18.35
2019-02-16T10:02:50.966Z,19.92
2019-02-16T10:05:36.335Z,16.95
2019-02-16T10:08:22.999Z,20.65
2019-02-16T10:11:02.342Z,16.93
2019-02-16T10:13:32.398Z,20.62
2019-02-16T10:16:08.449Z,16.27
2019-02-16T10:18:38.525Z,16.67
2019-02-16T10:21:26.670Z,20.55
2019-02-16T10:24:17.935Z,19.27
2019-02-16T10:26:52.439Z,21.80
2019-02-16T10:29:26.514Z,21.23
2019-02-16T10:31:59.838Z,18.02
2019-02-16T10:34:29.891Z,16.95
2019-02-16T10:36:59.929Z,17.75
2019-02-16T10:39:41.817Z,20.95
2019-02-16T10:42:11.850Z,22.60
2019-02-16T10:44:50.922Z,24.45
2019-02-16T10:47:21.070Z,23.55
2019-02-16T10:49:51.126Z,23.62
2019-02-16T10:52:24.109Z,21.77
2019-02-16T10:54:56.880Z,22.25
2019-02-16T10:57:32.868Z,24.25
2019-02-16T11:00:05.636Z,22.13
2019-02-16T11:02:35.681Z,24.10
2019-02-16T11:05:06.366Z,19.27
2019-02-16T11:07:39.385Z,19.15
2019-02-16T11:10:11.611Z,19.40
2019-02-16T11:12:47.422Z,19.07
2019-02-16T11:15:30.496Z,19.55
2019-02-16T11:18:19.155Z,19.55
2019-02-16T11:20:49.233Z,18.55
2019-02-16T11:23:34.585Z,21.05
2019-02-16T11:26:19.597Z,20.92
2019-02-16T11:28:52.409Z,24.60
2019-02-16T11:31:28.365Z,22.87
2019-02-16T11:33:58.435Z,20.30
2019-02-16T11:36:40.821Z,20.65
2019-02-16T11:39:27.185Z,27.75
2019-02-16T11:42:06.240Z,22.70
2019-02-16T11:44:45.335Z,27.17
2019-02-16T11:47:15.460Z,21.07
2019-02-16T11:49:48.265Z,19.77
2019-02-16T11:52:36.461Z,24.05
2019-02-16T11:55:09.145Z,18.00
2019-02-16T11:57:45.243Z,20.88
2019-02-16T12:00:18.229Z,20.48
2019-02-16T12:02:48.277Z,20.72
2019-02-16T12:05:21.063Z,18.92
2019-02-16T12:07:54.632Z,18.60
2019-02-16T12:10:24.877Z,17.25
2019-02-16T12:13:00.685Z,16.52
2019-02-16T12:15:33.530Z,22.73
2019-02-16T12:18:12.321Z,17.57
2019-02-16T12:20:42.382Z,17.57
2019-02-16T12:23:12.436Z,16.60
2019-02-16T12:25:45.189Z,16.87
2019-02-16T12:28:15.234Z,13.80
2019-02-16T12:30:51.101Z,17.62
2019-02-16T12:33:39.434Z,17.15
2019-02-16T12:36:26.163Z,17.95
2019-02-16T12:39:14.313Z,20.48
2019-02-16T12:41:44.368Z,22.35
2019-02-16T12:44:29.311Z,21.35
2019-02-16T12:47:11.461Z,16.62
2019-02-16T12:49:50.752Z,18.65
2019-02-16T12:52:20.848Z,17.62
2019-02-16T12:54:59.800Z,19.12
2019-02-16T12:57:29.849Z,20.70
2019-02-16T13:00:02.597Z,16.95
2019-02-16T13:02:32.680Z,15.65
2019-02-16T13:05:02.722Z,15.32
2019-02-16T13:07:32.860Z,17.02
2019-02-16T13:10:09.038Z,11.33
2019-02-16T13:12:39.077Z,14.95
2019-02-16T13:15:12.837Z,12.15
2019-02-16T13:17:42.896Z,13.28
2019-02-16T13:20:12.953Z,11.05
2019-02-16T13:22:43.011Z,10.53
2019-02-16T13:25:24.238Z,10.23
2019-02-16T13:27:47.712Z,9.28
2019-02-16T13:30:17.755Z,9.75
2019-02-16T13:32:47.801Z,10.05
2019-02-16T13:35:26.985Z,7.70
2019-02-16T13:37:59.742Z,9.15
2019-02-16T13:40:36.051Z,13.83
2019-02-16T13:43:06.088Z,12.00
2019-02-16T13:45:41.839Z,10.75
2019-02-16T13:48:24.043Z,12.03
2019-02-16T13:51:03.306Z,10.30
2019-02-16T13:53:33.349Z,12.15
2019-02-16T13:56:12.516Z,12.40
2019-02-16T13:58:51.290Z,10.78
2019-02-16T14:01:21.376Z,17.52
2019-02-16T14:04:07.768Z,12.93
2019-02-16T14:06:52.948Z,11.57
2019-02-16T14:09:25.573Z,12.75
2019-02-16T14:11:55.623Z,14.03
2019-02-16T14:14:37.476Z,12.28
2019-02-16T14:17:10.185Z,13.85
2019-02-16T14:19:38.606Z,12.20
2019-02-16T14:22:07.008Z,16.07
2019-02-16T14:24:40.064Z,14.78
2019-02-16T14:27:08.472Z,14.78
2019-02-16T14:29:36.868Z,15.63
2019-02-16T14:32:05.353Z,13.35
2019-02-16T14:34:33.759Z,15.45
2019-02-16T14:37:03.834Z,12.60
2019-02-16T14:39:33.877Z,11.48
2019-02-16T14:42:02.455Z,13.15
2019-02-16T14:44:30.971Z,16.40
2019-02-16T14:46:59.372Z,14.80
2019-02-16T14:49:29.800Z,13.15
2019-02-16T14:51:57.989Z,11.73
2019-02-16T14:54:26.485Z,14.50
2019-02-16T14:56:54.872Z,13.50
2019-02-16T14:59:23.268Z,12.30
2019-02-16T15:01:51.848Z,12.23
2019-02-16T15:04:20.355Z,15.32
2019-02-16T15:06:48.764Z,14.28
2019-02-16T15:09:17.161Z,12.85
2019-02-16T15:11:45.559Z,11.30
2019-02-16T15:14:13.986Z,10.95
2019-02-16T15:16:42.397Z,14.07
2019-02-16T15:19:10.865Z,12.73
2019-02-16T15:21:39.264Z,14.63
2019-02-16T15:24:07.676Z,14.38
2019-02-16T15:26:36.166Z,17.73
2019-02-16T15:29:04.564Z,21.77
2019-02-16T15:31:33.040Z,18.40
2019-02-16T15:34:01.441Z,16.85
2019-02-16T15:36:29.841Z,15.00
2019-02-16T15:38:58.354Z,17.62
2019-02-16T15:41:26.752Z,16.60
2019-02-16T15:43:55.220Z,18.40
2019-02-16T15:46:23.631Z,16.93
2019-02-16T15:48:52.030Z,16.60
2019-02-16T15:51:20.453Z,13.95
2019-02-16T15:53:48.907Z,16.23
2019-02-16T15:56:17.305Z,15.50
2019-02-16T15:58:45.722Z,18.80
2019-02-16T16:01:14.210Z,18.35
2019-02-16T16:03:42.765Z,16.45
2019-02-16T16:06:11.160Z,20.77
2019-02-16T16:09:00.986Z,19.80
2019-02-16T16:11:31.005Z,19.70
2019-02-16T16:14:17.537Z,18.35
2019-02-16T16:16:47.573Z,16.20
2019-02-16T16:19:20.266Z,21.07
2019-02-16T16:21:53.314Z,18.07
2019-02-16T16:24:38.709Z,19.00
2019-02-16T16:27:08.747Z,19.62
2019-02-16T16:29:38.864Z,20.45
2019-02-16T16:32:12.053Z,21.10
2019-02-16T16:34:58.537Z,18.10
2019-02-16T16:37:40.440Z,19.80
2019-02-16T16:40:13.488Z,20.12
2019-02-16T16:42:43.550Z,19.67
2019-02-16T16:45:13.664Z,18.67
2019-02-16T16:48:02.413Z,18.27
2019-02-16T16:50:32.485Z,20.15
2019-02-16T16:53:02.556Z,18.77
2019-02-16T16:55:38.381Z,18.37
2019-02-16T16:58:11.398Z,19.15
2019-02-16T17:00:47.366Z,21.60
2019-02-16T17:03:23.372Z,20.97
2019-02-16T17:05:53.449Z,20.02
2019-02-16T17:08:29.570Z,20.32
2019-02-16T17:10:59.635Z,18.25
2019-02-16T17:13:36.170Z,18.70
2019-02-16T17:16:18.511Z,20.48
2019-02-16T17:18:48.574Z,17.48
2019-02-16T17:21:22.197Z,16.77
2019-02-16T17:23:54.945Z,19.55
2019-02-16T17:26:41.693Z,19.92
2019-02-16T17:29:11.745Z,22.98
2019-02-16T17:31:47.872Z,21.93
2019-02-16T17:34:36.210Z,21.65
2019-02-16T17:37:11.887Z,23.00
2019-02-16T17:39:47.884Z,18.00
2019-02-16T17:42:34.396Z,18.92
2019-02-16T17:45:20.850Z,18.40
2019-02-16T17:47:53.793Z,19.35
2019-02-16T17:50:23.840Z,22.58
2019-02-16T17:53:05.689Z,19.27
2019-02-16T17:55:35.751Z,23.87
2019-02-16T17:58:14.919Z,20.05
2019-02-16T18:00:47.953Z,21.12
2019-02-16T18:03:18.004Z,16.15
2019-02-16T18:06:06.562Z,18.02
2019-02-16T18:08:53.125Z,19.77
2019-02-16T18:11:28.909Z,20.52
2019-02-16T18:13:58.966Z,18.42
2019-02-16T18:16:45.595Z,19.60
2019-02-16T18:19:15.761Z,19.00
2019-02-16T18:21:46.423Z,20.10
2019-02-16T18:24:16.570Z,19.15
2019-02-16T18:26:56.097Z,21.35
2019-02-16T18:29:30.064Z,17.00
2019-02-16T18:32:08.810Z,18.75
2019-02-16T18:34:55.073Z,19.98
2019-02-16T18:37:27.612Z,19.65
2019-02-16T18:40:00.801Z,22.98
2019-02-16T18:42:33.532Z,16.42
2019-02-16T18:45:19.663Z,19.30
2019-02-16T18:47:55.472Z,19.45
2019-02-16T18:50:31.805Z,21.17
2019-02-16T18:53:18.284Z,21.77
2019-02-16T18:55:48.330Z,21.40
2019-02-16T18:58:24.177Z,21.57
2019-02-16T19:00:56.743Z,21.57
2019-02-16T19:03:29.798Z,21.33
2019-02-16T19:06:08.707Z,18.05
2019-02-16T19:08:44.819Z,19.60
2019-02-16T19:11:14.901Z,21.73
2019-02-16T19:13:47.680Z,17.25
2019-02-16T19:16:17.789Z,18.65
2019-02-16T19:18:56.910Z,18.02
2019-02-16T19:21:32.682Z,24.20
2019-02-16T19:24:02.756Z,20.08
2019-02-16T19:26:32.805Z,20.50
2019-02-16T19:29:11.356Z,19.55
2019-02-16T19:31:47.129Z,18.10
2019-02-16T19:34:22.696Z,19.23
2019-02-16T19:36:55.629Z,23.27
2019-02-16T19:39:37.393Z,18.92
2019-02-16T19:42:22.447Z,19.82
2019-02-16T19:45:04.280Z,22.25
2019-02-16T19:47:34.313Z,22.73
2019-02-16T19:50:20.547Z,20.52
2019-02-16T19:53:06.914Z,18.70
2019-02-16T19:55:37.040Z,20.77
2019-02-16T19:58:12.842Z,22.45
2019-02-16T20:00:55.137Z,23.57
2019-02-16T20:03:25.181Z,22.55
2019-02-16T20:06:11.789Z,20.02
2019-02-16T20:08:41.843Z,24.67
2019-02-16T20:11:26.853Z,22.75
2019-02-16T20:14:05.563Z,19.73
2019-02-16T20:16:38.489Z,23.52
2019-02-16T20:19:08.541Z,21.20
2019-02-16T20:21:38.576Z,24.20
2019-02-16T20:24:27.194Z,20.15
2019-02-16T20:27:15.359Z,21.80
2019-02-16T20:29:57.721Z,22.70
2019-02-16T20:32:36.593Z,21.75
2019-02-16T20:35:06.781Z,21.50
2019-02-16T20:37:43.053Z,25.17
2019-02-16T20:40:13.105Z,20.08
2019-02-16T20:42:43.152Z,21.57
2019-02-16T20:45:13.261Z,22.98
2019-02-16T20:48:01.359Z,27.02
2019-02-16T20:50:36.876Z,20.77
2019-02-16T20:53:06.912Z,22.17
2019-02-16T20:55:36.953Z,23.70
2019-02-16T20:58:15.929Z,23.55
2019-02-16T21:00:52.159Z,22.17
2019-02-16T21:03:40.359Z,22.67
2019-02-16T21:06:10.392Z,21.55
2019-02-16T21:09:04.236Z,21.55
2019-02-16T21:11:46.096Z,23.62
2019-02-16T21:14:16.173Z,22.87
2019-02-16T21:16:46.211Z,22.70
2019-02-16T21:19:16.253Z,28.70
2019-02-16T21:22:02.538Z,27.60
2019-02-16T21:24:32.584Z,22.65
2019-02-16T21:27:17.985Z,22.30
2019-02-16T21:29:50.978Z,25.82
2019-02-16T21:32:30.251Z,23.55
2019-02-16T21:35:06.454Z,23.52
2019-02-16T21:37:45.520Z,21.52
2019-02-16T21:40:15.580Z,22.58
2019-02-16T21:42:51.334Z,18.17
2019-02-16T21:45:24.527Z,20.92
2019-02-16T21:48:03.494Z,21.12
2019-02-16T21:50:49.862Z,19.65
2019-02-16T21:53:25.833Z,19.85
2019-02-16T21:56:07.917Z,23.75
2019-02-16T21:58:47.209Z,26.42
2019-02-16T22:01:17.240Z,22.98
2019-02-16T22:03:49.957Z,23.80
2019-02-16T22:06:22.691Z,23.40
2019-02-16T22:08:55.690Z,24.90
2019-02-16T22:11:37.645Z,28.30
2019-02-16T22:14:06.076Z,19.98
2019-02-16T22:16:34.569Z,27.00
2019-02-16T22:19:02.968Z,22.75
2019-02-16T22:21:31.392Z,22.95
2019-02-16T22:23:59.866Z,20.25
2019-02-16T22:26:28.296Z,21.48
2019-02-16T22:28:56.700Z,25.70
2019-02-16T22:31:25.101Z,24.18
2019-02-16T22:33:53.500Z,21.48
2019-02-16T22:36:21.919Z,31.17
2019-02-16T22:38:50.345Z,22.73
2019-02-16T22:41:18.738Z,24.92
2019-02-16T22:43:47.144Z,25.62
2019-02-16T22:46:15.544Z,23.00
2019-02-16T22:48:43.956Z,24.77
2019-02-16T22:51:12.385Z,21.80
2019-02-16T22:53:40.792Z,24.10
2019-02-16T22:56:09.200Z,22.80
2019-02-16T22:58:37.617Z,22.73
2019-02-16T23:01:06.245Z,21.40
2019-02-16T23:03:34.680Z,28.00
2019-02-16T23:06:03.145Z,22.73
2019-02-16T23:08:31.550Z,24.92
2019-02-16T23:11:00.021Z,29.57
2019-02-16T23:13:28.512Z,21.17
2019-02-16T23:15:57.018Z,22.02
2019-02-16T23:18:25.416Z,25.00
2019-02-16T23:20:53.818Z,25.37
2019-02-16T23:23:22.228Z,19.57
2019-02-16T23:25:50.659Z,20.17
2019-02-16T23:28:19.098Z,22.75
2019-02-16T23:30:47.496Z,24.82
2019-02-16T23:33:15.898Z,24.50
2019-02-16T23:35:44.376Z,27.45
2019-02-16T23:38:12.774Z,24.50
2019-02-16T23:40:41.201Z,24.63
2019-02-16T23:43:09.604Z,22.40
2019-02-16T23:45:38.026Z,23.60
2019-02-16T23:48:06.606Z,20.15
2019-02-16T23:50:35.028Z,22.98
2019-02-16T23:53:03.502Z,20.55
2019-02-16T23:55:31.936Z,23.27
2019-02-16T23:58:00.360Z,21.82
